Time;durP1;ratioP1;P1;durP2;ratioP2;P2;SDS_P1;SDS_P2;PMS_P1;PMS_P2;Temp;Humidity;BMP_temperature;BMP_pressure;BME280_temperature;BME280_humidity;BME280_pressure;Samples;Min_cycle;Max_cycle;Signal;HPM_P1;HPM_P2
2022/07/14 02:39:31;;;;;;;2.80;2.45;;;23.40;63.80;;;;;;6158565;23;20400;-85
2022/07/14 02:41:58;;;;;;;2.40;2.20;;;23.40;63.20;;;;;;6217088;23;20430;-84
2022/07/14 02:44:25;;;;;;;3.58;2.47;;;23.50;63.00;;;;;;6217114;22;20447;-82
2022/07/14 02:46:51;;;;;;;2.70;2.50;;;23.50;64.20;;;;;;6216942;23;20423;-79
2022/07/14 02:49:19;;;;;;;2.70;2.50;;;23.30;65.90;;;;;;6215704;22;20373;-81
2022/07/14 02:51:45;;;;;;;3.40;2.83;;;23.20;66.90;;;;;;6216779;23;20392;-79
2022/07/14 02:54:12;;;;;;;2.90;2.70;;;23.00;67.60;;;;;;6217263;23;20376;-82
2022/07/14 02:56:39;;;;;;;2.72;2.53;;;22.90;68.20;;;;;;6216107;23;20742;-82
2022/07/14 02:59:07;;;;;;;2.85;2.63;;;22.80;68.60;;;;;;6217454;23;20887;-84
2022/07/14 03:01:34;;;;;;;3.10;2.90;;;22.80;69.10;;;;;;6215967;23;20377;-84
2022/07/14 03:04:01;;;;;;;3.60;3.40;;;22.70;69.80;;;;;;6217403;23;20423;-82
2022/07/14 03:06:28;;;;;;;3.13;2.93;;;22.70;70.10;;;;;;6216546;23;20456;-84
2022/07/14 03:08:55;;;;;;;3.70;3.40;;;22.60;70.50;;;;;;6217374;23;20427;-79
2022/07/14 03:11:22;;;;;;;3.13;2.90;;;22.50;71.50;;;;;;6216125;23;20373;-84
2022/07/14 03:13:49;;;;;;;5.60;3.33;;;22.40;71.60;;;;;;6217309;23;20377;-84
2022/07/14 03:16:16;;;;;;;3.47;3.17;;;22.50;71.80;;;;;;6216273;23;20415;-81
2022/07/14 03:18:43;;;;;;;3.38;3.17;;;22.40;71.70;;;;;;6217224;23;20396;-83
2022/07/14 03:21:12;;;;;;;3.10;2.80;;;22.40;69.70;;;;;;6217312;23;20464;-84
2022/07/14 03:23:39;;;;;;;3.17;2.87;;;22.50;68.10;;;;;;6191525;23;20445;-83
2022/07/14 03:26:06;;;;;;;3.08;2.70;;;22.50;67.00;;;;;;6187202;23;20375;-84
2022/07/14 03:28:33;;;;;;;3.00;2.80;;;22.60;66.10;;;;;;6186114;23;20421;-78
2022/07/14 03:31:00;;;;;;;2.78;2.58;;;22.70;66.70;;;;;;6212586;23;20375;-81
2022/07/14 03:33:27;;;;;;;3.13;2.60;;;22.60;67.70;;;;;;6185904;23;20853;-79
2022/07/14 03:35:54;;;;;;;3.13;2.80;;;22.60;68.70;;;;;;6187070;23;20367;-85
2022/07/14 03:38:21;;;;;;;2.90;2.70;;;22.50;68.70;;;;;;6185672;23;20374;-82
2022/07/14 03:41:03;;;;;;;3.85;2.90;;;22.50;68.20;;;;;;6189786;23;20827;-84
2022/07/14 03:43:32;;;;;;;2.70;2.50;;;22.40;67.10;;;;;;6186360;23;20813;-79
2022/07/14 03:45:59;;;;;;;3.00;2.70;;;22.60;66.40;;;;;;6212794;23;20367;-81
2022/07/14 03:48:26;;;;;;;3.43;3.13;;;22.60;66.60;;;;;;6185296;23;20469;-85
2022/07/14 03:50:53;;;;;;;2.70;2.50;;;22.60;66.90;;;;;;6186441;23;20375;-78
2022/07/14 03:53:20;;;;;;;3.25;2.95;;;22.60;67.20;;;;;;6185768;23;20375;-79
2022/07/14 03:55:47;;;;;;;2.88;2.60;;;22.60;67.30;;;;;;6187084;23;20811;-81
2022/07/14 03:58:19;;;;;;;3.07;2.77;;;22.60;66.30;;;;;;6186466;23;20397;-83
2022/07/14 04:00:46;;;;;;;2.60;2.50;;;22.60;65.30;;;;;;6186346;23;20390;-84
2022/07/14 04:03:13;;;;;;;3.22;2.97;;;22.70;64.60;;;;;;6212737;23;20384;-85
2022/07/14 04:05:40;;;;;;;2.80;2.60;;;22.80;64.00;;;;;;6185799;23;20691;-84
2022/07/14 04:08:08;;;;;;;2.95;2.75;;;22.90;63.80;;;;;;6212415;23;20382;-79
2022/07/14 04:10:35;;;;;;;2.97;2.77;;;23.00;63.40;;;;;;6211481;23;20382;-85
2022/07/14 04:13:02;;;;;;;2.70;2.50;;;23.10;63.00;;;;;;6186785;23;20366;-79
2022/07/14 04:15:30;;;;;;;2.30;2.20;;;23.10;62.60;;;;;;6211625;23;20371;-84
2022/07/14 04:17:58;;;;;;;2.85;2.65;;;23.20;62.50;;;;;;6186627;23;20367;-78
2022/07/14 04:20:25;;;;;;;2.95;2.65;;;23.20;62.30;;;;;;6186085;23;20370;-81
2022/07/14 04:22:52;;;;;;;2.80;2.60;;;23.30;62.40;;;;;;6186169;23;20370;-83
2022/07/14 04:25:19;;;;;;;2.85;2.55;;;23.30;62.00;;;;;;6186460;23;20370;-85
2022/07/14 04:27:46;;;;;;;2.70;2.50;;;23.40;61.80;;;;;;6186137;23;20827;-85
2022/07/14 04:30:14;;;;;;;2.60;2.40;;;23.40;61.70;;;;;;6186305;23;20370;-83
2022/07/14 04:32:44;;;;;;;2.53;2.33;;;23.50;61.70;;;;;;6185523;23;20375;-81
2022/07/14 04:35:11;;;;;;;3.33;2.17;;;23.50;61.60;;;;;;6185727;23;20445;-85
2022/07/14 04:37:38;;;;;;;3.03;2.70;;;23.50;61.20;;;;;;6185240;23;20865;-83
2022/07/14 04:40:06;;;;;;;2.73;2.53;;;23.60;61.90;;;;;;6185837;23;20378;-81
2022/07/14 04:42:33;;;;;;;2.90;2.70;;;23.60;64.10;;;;;;6185408;23;20711;-83
2022/07/14 04:45:00;;;;;;;2.85;2.45;;;23.40;65.00;;;;;;6185713;23;20703;-84
2022/07/14 04:47:27;;;;;;;2.83;2.63;;;23.40;64.50;;;;;;6185601;23;20375;-85
2022/07/14 04:52:49;;;;;;;2.60;2.40;;;23.50;61.80;;;;;;6211896;23;20819;-85
2022/07/14 04:55:16;;;;;;;2.65;2.17;;;23.60;61.50;;;;;;6186512;23;20432;-82
2022/07/14 04:57:43;;;;;;;2.30;2.10;;;23.60;61.00;;;;;;6185349;23;20429;-81
2022/07/14 05:00:11;;;;;;;2.72;2.50;;;23.70;60.90;;;;;;6211473;23;20401;-79
2022/07/14 05:02:38;;;;;;;2.88;2.25;;;23.70;62.30;;;;;;6184622;23;20831;-78
2022/07/14 05:05:06;;;;;;;2.20;2.00;;;23.60;63.60;;;;;;6186294;23;20371;-84
2022/07/14 05:07:33;;;;;;;2.60;2.40;;;23.60;64.20;;;;;;6185280;23;20371;-81
2022/07/14 05:10:00;;;;;;;2.38;2.17;;;23.60;65.10;;;;;;6185619;23;20452;-82
2022/07/14 05:12:27;;;;;;;2.35;2.20;;;23.60;65.80;;;;;;6186231;23;20440;-84
2022/07/14 05:14:55;;;;;;;3.47;2.80;;;23.60;66.40;;;;;;6188046;23;20374;-80
2022/07/14 05:17:22;;;;;;;2.60;2.40;;;23.60;65.20;;;;;;6188434;23;20367;-82
2022/07/14 05:19:52;;;;;;;3.05;2.60;;;23.60;64.70;;;;;;6188156;23;20390;-82
2022/07/14 05:22:19;;;;;;;2.53;2.33;;;23.60;65.70;;;;;;6187709;23;20855;-79
2022/07/14 05:24:46;;;;;;;2.85;2.45;;;23.60;66.30;;;;;;6187475;23;20426;-80
2022/07/14 05:27:12;;;;;;;3.47;2.70;;;23.60;64.40;;;;;;6187879;23;20378;-81
2022/07/14 05:29:40;;;;;;;2.72;2.30;;;23.70;62.00;;;;;;6187177;23;20723;-81
2022/07/14 05:32:06;;;;;;;2.80;2.60;;;23.80;61.20;;;;;;6187893;23;20440;-79
2022/07/14 05:34:43;;;;;;;2.40;2.20;;;23.90;60.30;;;;;;6186141;23;20838;-82
2022/07/14 05:37:11;;;;;;;3.38;2.45;;;24.00;60.10;;;;;;6186660;23;20428;-80
2022/07/14 05:39:38;;;;;;;2.50;2.30;;;24.10;59.80;;;;;;6186957;23;20920;-79
2022/07/14 05:42:05;;;;;;;2.65;2.45;;;24.20;59.50;;;;;;6187662;23;20374;-80
2022/07/14 05:44:34;;;;;;;2.53;2.33;;;24.20;59.20;;;;;;6186197;23;20374;-83
2022/07/14 05:47:01;;;;;;;2.55;2.30;;;24.30;60.00;;;;;;6187192;23;20738;-82
2022/07/14 05:49:28;;;;;;;2.35;2.22;;;24.30;58.90;;;;;;6213468;23;20362;-83
2022/07/14 05:51:55;;;;;;;2.55;2.35;;;24.40;58.80;;;;;;6187073;23;20378;-84
2022/07/14 05:54:22;;;;;;;2.83;2.63;;;24.40;58.30;;;;;;6187668;23;20371;-82
2022/07/14 05:56:49;;;;;;;2.75;2.40;;;24.50;58.20;;;;;;6186842;23;20379;-81
2022/07/14 05:59:15;;;;;;;4.50;2.13;;;24.50;58.10;;;;;;6187311;23;20928;-80
2022/07/14 06:02:03;;;;;;;3.15;2.10;;;24.60;58.00;;;;;;6190941;23;20387;-80
2022/07/14 06:04:31;;;;;;;1.95;1.85;;;24.60;58.00;;;;;;6213282;23;20375;-81
2022/07/14 06:06:58;;;;;;;2.65;2.45;;;24.60;58.20;;;;;;6185762;23;20835;-85
2022/07/14 06:09:24;;;;;;;2.30;2.20;;;24.60;58.10;;;;;;6187006;23;20432;-80
2022/07/14 06:11:51;;;;;;;1.95;1.85;;;24.70;57.80;;;;;;6186098;23;20424;-85
2022/07/14 06:14:18;;;;;;;2.00;1.80;;;24.70;57.70;;;;;;6187205;23;20375;-84
2022/07/14 06:16:45;;;;;;;2.60;2.40;;;24.80;57.50;;;;;;6186009;23;20370;-78
2022/07/14 06:19:12;;;;;;;2.37;2.17;;;24.80;58.00;;;;;;6187440;23;20405;-85
2022/07/14 06:21:43;;;;;;;1.80;1.70;;;24.80;58.20;;;;;;6186315;23;20382;-85
2022/07/14 06:24:12;;;;;;;2.80;2.60;;;24.90;57.40;;;;;;6186416;23;20373;-81
2022/07/14 06:26:40;;;;;;;3.63;2.00;;;24.90;57.20;;;;;;6187774;23;20438;-81
2022/07/14 06:29:07;;;;;;;2.30;2.10;;;24.90;57.00;;;;;;6185847;23;20363;-81
2022/07/14 06:31:36;;;;;;;2.50;2.30;;;24.90;56.70;;;;;;6186505;23;20386;-80
2022/07/14 06:34:04;;;;;;;3.28;2.63;;;24.90;56.70;;;;;;6186099;23;20405;-78
2022/07/14 06:36:31;;;;;;;3.20;2.90;;;25.00;56.80;;;;;;6186407;23;20402;-80
2022/07/14 06:38:59;;;;;;;3.13;2.83;;;25.00;56.80;;;;;;6185551;23;20422;-80
2022/07/14 06:41:26;;;;;;;4.07;3.20;;;25.00;56.40;;;;;;6185163;23;20378;-82
2022/07/14 06:43:53;;;;;;;3.67;3.15;;;25.00;56.20;;;;;;6184963;23;20378;-82
2022/07/14 06:46:20;;;;;;;3.75;2.78;;;25.10;55.90;;;;;;6186408;23;20711;-81
2022/07/14 06:48:47;;;;;;;4.25;2.72;;;25.10;56.10;;;;;;6185656;23;20466;-85
2022/07/14 06:51:14;;;;;;;2.63;2.10;;;25.20;56.20;;;;;;6186363;23;20393;-82
2022/07/14 06:53:41;;;;;;;2.55;2.35;;;25.10;56.20;;;;;;6185314;23;20843;-81
2022/07/14 06:56:08;;;;;;;3.92;2.45;;;25.20;56.50;;;;;;6185543;23;20355;-84
2022/07/14 06:58:35;;;;;;;3.05;2.75;;;25.10;56.60;;;;;;6212917;23;20448;-80
2022/07/14 07:01:02;;;;;;;3.08;2.75;;;25.20;56.70;;;;;;6184987;23;20704;-83
2022/07/14 07:03:29;;;;;;;4.28;2.90;;;25.20;56.90;;;;;;6187466;23;20758;-80
2022/07/14 07:08:42;;;;;;;2.63;2.20;;;25.30;57.40;;;;;;6210757;23;20367;-80
2022/07/14 07:11:09;;;;;;;2.00;1.77;;;25.30;57.60;;;;;;6183354;23;20432;-83
2022/07/14 07:13:37;;;;;;;2.40;2.20;;;25.40;57.70;;;;;;6185737;23;20720;-80
2022/07/14 07:16:06;;;;;;;2.03;1.92;;;25.40;57.80;;;;;;6186035;23;20428;-80
2022/07/14 07:18:34;;;;;;;2.20;2.00;;;25.40;58.60;;;;;;6186260;23;20381;-80
2022/07/14 07:21:02;;;;;;;6.00;2.80;;;25.40;59.90;;;;;;6186042;23;20827;-82
2022/07/14 07:23:32;;;;;;;2.63;2.42;;;25.30;61.50;;;;;;6186897;23;20371;-82
2022/07/14 07:25:59;;;;;;;2.42;2.20;;;25.30;61.90;;;;;;6185739;23;20374;-82
2022/07/14 07:28:26;;;;;;;3.50;3.20;;;25.20;61.80;;;;;;6186735;23;20367;-80
2022/07/14 07:30:53;;;;;;;3.50;3.20;;;25.30;62.00;;;;;;6185473;23;20417;-82
2022/07/14 07:33:20;;;;;;;3.40;3.10;;;25.30;61.90;;;;;;6186310;23;20387;-80
2022/07/14 07:35:47;;;;;;;3.40;3.10;;;25.30;62.00;;;;;;6185771;23;20373;-82
2022/07/14 07:38:14;;;;;;;3.40;3.08;;;25.30;62.20;;;;;;6186668;23;20885;-80
2022/07/14 07:40:41;;;;;;;4.15;3.00;;;25.40;62.20;;;;;;6186374;23;20371;-80
2022/07/14 07:43:08;;;;;;;2.77;2.57;;;25.50;61.80;;;;;;6185323;23;20369;-80
2022/07/14 07:45:34;;;;;;;2.72;2.40;;;25.60;61.30;;;;;;6186247;23;20383;-83
2022/07/14 07:48:03;;;;;;;2.92;2.72;;;25.70;60.60;;;;;;6210919;23;20437;-80
2022/07/14 07:50:31;;;;;;;3.05;2.50;;;25.80;60.10;;;;;;6186251;23;20375;-81
2022/07/14 07:52:58;;;;;;;5.35;3.70;;;25.90;60.00;;;;;;6185101;23;20429;-80
2022/07/14 07:55:26;;;;;;;3.28;3.03;;;25.90;59.70;;;;;;6186372;23;20405;-81
2022/07/14 07:57:54;;;;;;;3.42;3.17;;;26.00;59.60;;;;;;6185268;23;20856;-81
2022/07/14 08:00:21;;;;;;;3.50;3.17;;;26.00;59.50;;;;;;6186392;23;20421;-80
2022/07/14 08:02:52;;;;;;;3.30;3.00;;;26.10;59.50;;;;;;6185165;23;20367;-82
2022/07/14 08:05:23;;;;;;;3.20;2.85;;;26.10;59.40;;;;;;6186043;23;20381;-79
2022/07/14 08:08:10;;;;;;;3.75;2.75;;;26.30;59.00;;;;;;6189467;23;20430;-80
2022/07/14 08:10:38;;;;;;;2.28;2.08;;;26.40;57.50;;;;;;6186438;23;20854;-82
2022/07/14 08:13:07;;;;;;;2.40;2.20;;;26.50;56.70;;;;;;6184998;23;20382;-82
2022/07/14 08:15:34;;;;;;;2.13;1.92;;;26.60;56.10;;;;;;6171201;23;20390;-84
2022/07/14 08:18:01;;;;;;;4.45;2.35;;;26.60;55.40;;;;;;6171549;23;20433;-82
2022/07/14 08:20:32;;;;;;;2.03;1.73;;;26.80;55.20;;;;;;6186639;23;20445;-85
2022/07/14 08:23:00;;;;;;;2.97;2.20;;;26.80;55.30;;;;;;6183651;23;20375;-85
2022/07/14 08:25:28;;;;;;;2.58;2.00;;;26.90;54.50;;;;;;6186075;23;21015;-82
2022/07/14 08:27:55;;;;;;;3.65;2.20;;;26.90;54.40;;;;;;6185275;23;20885;-83
2022/07/14 08:30:23;;;;;;;2.72;2.05;;;27.00;53.40;;;;;;6180678;23;20760;-81
2022/07/14 08:32:52;;;;;;;3.33;1.80;;;27.00;53.00;;;;;;6157515;23;20406;-81
2022/07/14 08:35:23;;;;;;;2.40;2.20;;;27.10;52.60;;;;;;6182500;23;20742;-86
2022/07/14 08:37:52;;;;;;;2.40;1.90;;;27.10;52.40;;;;;;6186052;23;20381;-85
2022/07/14 08:40:25;;;;;;;2.20;1.90;;;27.10;52.50;;;;;;6169149;23;20381;-81
2022/07/14 08:42:55;;;;;;;3.20;2.17;;;27.10;52.60;;;;;;6184366;23;20855;-83
2022/07/14 08:45:26;;;;;;;3.08;2.13;;;27.20;52.50;;;;;;6183243;23;20838;-83
2022/07/14 08:47:55;;;;;;;3.73;2.37;;;27.20;52.70;;;;;;6185509;23;20469;-81
2022/07/14 08:50:26;;;;;;;2.35;2.15;;;27.40;52.80;;;;;;6183208;23;20386;-83
2022/07/14 08:52:54;;;;;;;2.88;2.63;;;27.60;53.00;;;;;;6185204;23;20406;-82
2022/07/14 08:55:21;;;;;;;2.57;2.37;;;27.90;52.30;;;;;;6182790;23;20398;-84
2022/07/14 08:57:51;;;;;;;2.42;1.85;;;28.20;51.80;;;;;;6186821;23;20463;-82
2022/07/14 09:00:19;;;;;;;3.33;2.17;;;28.50;50.40;;;;;;6183348;23;20905;-86
2022/07/14 09:02:52;;;;;;;3.00;1.77;;;28.70;49.10;;;;;;6186205;23;20371;-85
2022/07/14 09:05:43;;;;;;;1.92;1.73;;;28.80;49.50;;;;;;6189661;23;20376;-83
2022/07/14 09:08:16;;;;;;;2.45;2.00;;;29.00;49.60;;;;;;6185864;23;20378;-84
2022/07/14 09:10:45;;;;;;;2.60;1.80;;;29.10;50.30;;;;;;6159824;23;20366;-81
2022/07/14 09:13:31;;;;;;;2.00;1.80;;;29.30;50.50;;;;;;6188318;23;20386;-85
2022/07/14 09:16:20;;;;;;;3.20;1.80;;;29.30;48.90;;;;;;6185498;23;20861;-85
2022/07/14 09:19:06;;;;;;;4.18;2.28;;;29.10;49.30;;;;;;6182921;23;30016;-83
2022/07/14 09:21:42;;;;;;;3.83;2.33;;;29.10;49.40;;;;;;6183522;23;20707;-81
2022/07/14 09:24:12;;;;;;;3.40;2.30;;;29.00;49.40;;;;;;6184883;23;20383;-82
2022/07/14 09:26:47;;;;;;;2.55;2.10;;;28.90;50.10;;;;;;6184665;23;20369;-85
2022/07/14 09:29:25;;;;;;;3.63;2.00;;;28.80;51.60;;;;;;6185266;23;20779;-84
2022/07/14 09:31:52;;;;;;;3.58;2.40;;;29.00;51.60;;;;;;6211185;23;20823;-88
2022/07/14 09:34:33;;;;;;;2.67;1.98;;;29.30;50.70;;;;;;6211876;23;20367;-85
2022/07/14 09:37:18;;;;;;;2.50;1.87;;;29.50;50.90;;;;;;6186917;23;20425;-88
2022/07/14 09:39:53;;;;;;;2.72;1.58;;;29.70;49.60;;;;;;6183418;23;20462;-84
2022/07/14 09:42:20;;;;;;;3.35;2.08;;;29.80;49.10;;;;;;6185425;23;20421;-82
2022/07/14 09:44:47;;;;;;;4.23;2.30;;;30.00;49.40;;;;;;6185251;23;20371;-81
2022/07/14 09:47:15;;;;;;;5.20;2.38;;;30.00;48.70;;;;;;6185225;23;20429;-81
2022/07/14 09:49:42;;;;;;;2.60;1.55;;;30.20;48.20;;;;;;6184595;23;20369;-83
2022/07/14 09:52:32;;;;;;;3.13;1.60;;;30.40;48.20;;;;;;6183969;23;20389;-84
2022/07/14 09:54:59;;;;;;;2.13;1.60;;;30.80;48.30;;;;;;6212152;23;20379;-86
2022/07/14 09:57:27;;;;;;;2.10;1.73;;;31.20;46.90;;;;;;6184939;23;20375;-86
2022/07/14 10:00:16;;;;;;;2.00;1.80;;;31.40;45.30;;;;;;6187142;23;20390;-83
2022/07/14 10:02:43;;;;;;;2.42;1.40;;;31.30;45.10;;;;;;6186785;23;20363;-82
2022/07/14 10:05:12;;;;;;;2.17;1.63;;;31.20;44.50;;;;;;6212559;23;20379;-83
2022/07/14 10:07:47;;;;;;;3.40;1.48;;;31.20;44.00;;;;;;6186471;23;20375;-83
2022/07/14 10:10:22;;;;;;;2.97;1.90;;;31.20;44.90;;;;;;6188095;23;20823;-83
2022/07/14 10:12:50;;;;;;;1.52;1.35;;;31.40;44.60;;;;;;6186479;23;20401;-81
2022/07/14 10:15:17;;;;;;;2.22;1.60;;;31.50;44.60;;;;;;6184757;23;20371;-87
2022/07/14 10:17:45;;;;;;;2.77;1.37;;;31.50;43.60;;;;;;6165840;23;20968;-83
2022/07/14 10:20:19;;;;;;;1.80;1.60;;;31.70;44.60;;;;;;6167255;23;20482;-83
2022/07/14 10:22:49;;;;;;;2.97;1.70;;;32.00;43.20;;;;;;6182165;23;20381;-83
2022/07/14 10:25:17;;;;;;;2.15;1.50;;;32.10;42.40;;;;;;6187030;23;20371;-83
2022/07/14 10:27:48;;;;;;;2.65;1.55;;;32.10;42.90;;;;;;6186158;23;20422;-83
2022/07/14 10:30:15;;;;;;;2.65;1.80;;;32.30;43.70;;;;;;6185746;23;20375;-83
2022/07/14 10:33:28;;;;;;;2.20;2.00;;;32.40;42.70;;;;;;6185414;23;20485;-83
2022/07/14 10:36:07;;;;;;;4.00;1.63;;;32.40;42.30;;;;;;6142310;23;20477;-83
2022/07/14 10:38:56;;;;;;;2.85;1.50;;;32.50;41.90;;;;;;6185922;23;20379;-87
2022/07/14 10:41:41;;;;;;;2.38;1.52;;;32.60;42.00;;;;;;6187206;23;20417;-85
2022/07/14 10:44:15;;;;;;;1.37;1.23;;;32.70;42.00;;;;;;6185645;23;20370;-83
2022/07/14 10:46:49;;;;;;;4.68;1.35;;;32.80;41.20;;;;;;6185040;23;20371;-82
2022/07/14 10:49:17;;;;;;;2.72;1.60;;;32.90;40.20;;;;;;6183022;23;20366;-85
2022/07/14 10:51:49;;;;;;;3.50;1.75;;;32.90;40.10;;;;;;6184443;23;20918;-84
2022/07/14 10:54:24;;;;;;;2.72;1.63;;;32.90;39.30;;;;;;6182992;23;20379;-83
2022/07/14 10:57:17;;;;;;;3.78;1.63;;;32.80;39.60;;;;;;6188720;23;20385;-83
2022/07/14 10:59:47;;;;;;;2.50;1.40;;;32.60;40.50;;;;;;6186925;23;20374;-83
2022/07/14 11:02:15;;;;;;;1.80;1.70;;;32.60;41.40;;;;;;6183436;23;20457;-82
2022/07/14 11:05:06;;;;;;;2.97;1.60;;;32.70;41.20;;;;;;6181807;23;20379;-86
2022/07/14 11:07:40;;;;;;;2.58;1.50;;;32.90;40.00;;;;;;6211247;23;20917;-83
2022/07/14 11:10:19;;;;;;;1.88;1.50;;;32.90;40.90;;;;;;6183864;23;20454;-87
2022/07/14 11:13:04;;;;;;;2.97;1.30;;;33.10;40.80;;;;;;6152446;23;20381;-83
2022/07/14 11:15:44;;;;;;;1.73;1.40;;;33.30;40.10;;;;;;6178983;23;20453;-85
2022/07/14 11:18:18;;;;;;;2.55;1.30;;;33.40;39.80;;;;;;6174705;23;20457;-83
2022/07/14 11:20:56;;;;;;;3.65;1.48;;;33.60;40.30;;;;;;6184751;23;20402;-83
2022/07/14 11:23:37;;;;;;;1.88;1.10;;;33.70;38.60;;;;;;6186207;23;20371;-83
2022/07/14 11:26:28;;;;;;;3.08;1.70;;;33.90;38.80;;;;;;6172041;23;20377;-85
2022/07/14 11:28:57;;;;;;;2.75;1.58;;;34.00;37.80;;;;;;6164054;23;20739;-86
2022/07/14 11:31:24;;;;;;;2.40;1.27;;;33.80;37.90;;;;;;6162235;23;20907;-88
2022/07/14 11:37:01;;;;;;;1.85;1.38;;;33.80;40.20;;;;;;6210795;23;20448;-84
2022/07/14 11:39:48;;;;;;;1.60;1.40;;;34.00;39.00;;;;;;6148293;23;20429;-83
2022/07/14 11:42:17;;;;;;;4.55;2.15;;;34.10;38.50;;;;;;6211489;23;20457;-86
2022/07/14 11:44:48;;;;;;;3.40;1.65;;;34.20;38.20;;;;;;6182024;23;20370;-84
2022/07/14 11:47:21;;;;;;;1.40;1.30;;;34.10;37.30;;;;;;6185898;23;20863;-83
2022/07/14 11:50:05;;;;;;;2.40;1.27;;;34.10;37.20;;;;;;6183028;23;20843;-82
2022/07/14 11:52:40;;;;;;;3.50;1.80;;;34.20;37.80;;;;;;6187473;23;20385;-83
2022/07/14 11:55:10;;;;;;;2.53;1.65;;;34.30;38.30;;;;;;6186014;23;20378;-81
2022/07/14 11:57:40;;;;;;;1.77;1.60;;;34.70;38.20;;;;;;6183300;23;20379;-81
2022/07/14 12:00:10;;;;;;;3.15;2.00;;;34.80;37.00;;;;;;6183987;23;20835;-81
2022/07/14 12:02:58;;;;;;;4.07;1.77;;;34.90;36.90;;;;;;6184624;23;20099;-82
2022/07/14 12:05:27;;;;;;;3.50;1.98;;;34.90;36.10;;;;;;6187497;23;20020;-81
2022/07/14 12:07:54;;;;;;;;;;;34.90;36.90;;;;;;6187613;23;20028;-82
2022/07/14 12:10:42;;;;;;;;;;;35.00;37.00;;;;;;6186288;23;19916;-82
2022/07/14 12:13:09;;;;;;;;;;;35.10;36.70;;;;;;6211654;23;19920;-83
2022/07/14 12:15:36;;;;;;;1.85;1.70;;;35.00;35.40;;;;;;6187146;23;19919;-82
2022/07/14 12:18:05;;;;;;;;;;;34.90;36.10;;;;;;6187052;23;20025;-83
2022/07/14 12:20:38;;;;;;;;;;;35.00;36.90;;;;;;6187421;23;19942;-87
2022/07/14 12:23:05;;;;;;;;;;;35.10;36.50;;;;;;6187782;23;19920;-86
2022/07/14 12:25:34;;;;;;;;;;;35.10;36.40;;;;;;6187883;23;19923;-83
2022/07/14 12:28:09;;;;;;;;;;;35.20;36.20;;;;;;6210526;23;19916;-82
2022/07/14 12:30:47;;;;;;;;;;;35.40;36.90;;;;;;6187390;23;19942;-86
2022/07/14 12:33:36;;;;;;;;;;;35.50;36.20;;;;;;6184286;23;19927;-84
2022/07/14 12:36:04;;;;;;;;;;;35.50;35.30;;;;;;6185064;23;19920;-81
2022/07/14 12:38:33;;;;;;;;;;;35.40;35.50;;;;;;6187006;23;20256;-82
2022/07/14 12:41:01;;;;;;;;;;;35.40;34.80;;;;;;6184126;23;20375;-83
2022/07/14 12:43:35;;;;;;;;;;;35.30;36.30;;;;;;6186588;23;19920;-83
2022/07/14 12:46:04;;;;;;;;;;;35.30;35.70;;;;;;6185960;23;19982;-85
2022/07/14 12:48:33;;;;;;;;;;;35.30;36.00;;;;;;6186452;23;19987;-83
2022/07/14 12:51:21;;;;;;;;;;;35.40;36.20;;;;;;6183073;23;20263;-83
2022/07/14 12:54:02;;;;;;;;;;;35.50;35.60;;;;;;6187154;23;19923;-86
2022/07/14 12:56:31;;;;;;;;;;;35.60;34.80;;;;;;6185834;23;19925;-82
2022/07/14 12:58:59;;;;;;;;;;;35.50;35.40;;;;;;6185165;23;19935;-82
2022/07/14 13:01:27;;;;;;;;;;;35.70;36.00;;;;;;6186163;23;20361;-82
2022/07/14 13:03:55;;;;;;;;;;;35.80;35.10;;;;;;6212173;23;19938;-82
2022/07/14 13:06:22;;;;;;;;;;;35.90;35.30;;;;;;6185006;23;19923;-83
2022/07/14 13:08:50;;;;;;;;;;;35.70;34.80;;;;;;6212464;23;19923;-87
2022/07/14 13:11:17;;;;;;;;;;;35.50;35.10;;;;;;6187033;23;19962;-83
2022/07/14 13:13:45;;;;;;;;;;;35.40;35.60;;;;;;6186687;23;20283;-84
2022/07/14 13:16:23;;;;;;;;;;;35.40;36.10;;;;;;6213338;23;19916;-82
2022/07/14 13:19:00;;;;;;;;;;;35.60;36.00;;;;;;6214130;23;19919;-88
2022/07/14 13:21:59;;;;;;;;;;;35.70;34.70;;;;;;6186312;23;19922;-82
2022/07/14 13:24:31;;;;;;;;;;;35.80;35.10;;;;;;6108043;23;19978;-86
2022/07/14 13:27:02;;;;;;;;;;;36.20;35.10;;;;;;6186843;23;20383;-82
2022/07/14 13:29:31;;;;;;;;;;;36.50;34.80;;;;;;6186041;23;20336;-83
2022/07/14 13:31:58;;;;;;;;;;;36.90;34.60;;;;;;6187756;23;19946;-81
2022/07/14 13:34:25;;;;;;;;;;;37.20;34.00;;;;;;6188089;23;19931;-82
2022/07/14 13:36:53;;;;;;;;;;;37.30;32.90;;;;;;6189739;23;20434;-83
2022/07/14 13:39:21;;;;;;;;;;;37.20;32.50;;;;;;6187728;23;20256;-82
2022/07/14 13:41:53;;;;;;;;;;;37.20;33.00;;;;;;6190271;23;19916;-83
2022/07/14 13:44:21;;;;;;;;;;;37.00;32.90;;;;;;6188956;23;19915;-81
2022/07/14 13:46:48;;;;;;;;;;;36.80;32.90;;;;;;6189242;23;20256;-83
2022/07/14 13:49:16;;;;;;;;;;;36.60;33.10;;;;;;6188840;23;20003;-84
2022/07/14 13:54:31;;;;;;;;;;;36.60;33.70;;;;;;6214560;23;19924;-81
2022/07/14 13:56:58;;;;;;;;;;;36.50;33.40;;;;;;6188358;23;19916;-86
2022/07/14 13:59:25;;;;;;;;;;;36.30;33.80;;;;;;6187438;23;19919;-86
2022/07/14 14:01:52;;;;;;;;;;;36.40;34.10;;;;;;6189045;23;19970;-81
2022/07/14 14:04:19;;;;;;;;;;;36.50;33.90;;;;;;6187946;23;19924;-87
2022/07/14 14:06:49;;;;;;;;;;;36.50;33.40;;;;;;6190053;23;20241;-86
2022/07/14 14:09:17;;;;;;;;;;;36.60;34.10;;;;;;6187942;23;19916;-82
2022/07/14 14:11:45;;;;;;;;;;;36.60;33.90;;;;;;6215280;23;19977;-82
2022/07/14 14:14:12;;;;;;;;;;;36.70;33.60;;;;;;6163232;23;19982;-85
2022/07/14 14:16:39;;;;;;;;;;;36.80;33.60;;;;;;6188245;23;19916;-81
2022/07/14 14:19:18;;;;;;;;;;;36.80;33.60;;;;;;6190214;23;19919;-83
2022/07/14 14:21:48;;;;;;;;;;;36.90;33.70;;;;;;6189638;23;20291;-86
2022/07/14 14:24:16;;;;;;;;;;;36.60;32.90;;;;;;6188411;23;19946;-86
2022/07/14 14:26:44;;;;;;;;;;;36.70;33.30;;;;;;6190577;23;19916;-87
2022/07/14 14:29:11;;;;;;;;;;;36.80;33.30;;;;;;6188669;23;20395;-86
2022/07/14 14:31:42;;;;;;;;;;;36.80;32.60;;;;;;6189679;23;19942;-87
2022/07/14 14:34:09;;;;;;;;;;;36.80;33.20;;;;;;6187861;23;20354;-87
2022/07/14 14:36:36;;;;;;;;;;;36.70;32.30;;;;;;6188198;23;20337;-87
2022/07/14 14:39:03;;;;;;;;;;;36.60;32.20;;;;;;6189009;23;19916;-82
2022/07/14 14:41:30;;;;;;;;;;;36.60;32.70;;;;;;6182667;23;19947;-83
2022/07/14 14:43:57;;;;;;;;;;;36.70;33.90;;;;;;6160123;23;20330;-82
2022/07/14 14:46:24;;;;;;;;;;;36.90;32.50;;;;;;6178906;23;19916;-84
2022/07/14 14:48:52;;;;;;;;;;;37.00;32.90;;;;;;6172281;23;19922;-84
2022/07/14 14:51:19;;;;;;;;;;;37.20;32.90;;;;;;6182398;23;19920;-84
2022/07/14 14:53:46;;;;;;;;;;;37.10;33.40;;;;;;6183595;23;19916;-82
2022/07/14 14:56:13;;;;;;;;;;;37.10;32.90;;;;;;6183587;23;20400;-82
2022/07/14 14:58:40;;;;;;;;;;;37.00;32.70;;;;;;6170851;23;19920;-82
2022/07/14 15:01:08;;;;;;;;;;;37.00;33.60;;;;;;6184096;23;19920;-84
2022/07/14 15:03:35;;;;;;;;;;;36.90;33.50;;;;;;6182998;23;19920;-83
2022/07/14 15:06:02;;;;;;;;;;;37.00;33.20;;;;;;6183618;23;19927;-82
2022/07/14 15:08:29;;;;;;;;;;;36.90;32.20;;;;;;6183082;23;19916;-82
2022/07/14 15:10:56;;;;;;;;;;;36.90;32.70;;;;;;6184020;23;19959;-83
2022/07/14 15:13:23;;;;;;;;;;;36.70;32.80;;;;;;6182619;23;20261;-82
2022/07/14 15:15:50;;;;;;;;;;;36.60;33.60;;;;;;6183684;23;19917;-83
2022/07/14 15:18:17;;;;;;;;;;;36.70;33.00;;;;;;6183171;23;20321;-82
2022/07/14 15:20:44;;;;;;;;;;;36.90;33.20;;;;;;6183000;23;19924;-82
2022/07/14 15:23:11;;;;;;;;;;;37.00;32.70;;;;;;6183478;23;19948;-83
2022/07/14 15:25:38;;;;;;;;;;;37.20;32.70;;;;;;6182504;23;19916;-83
2022/07/14 15:28:05;;;;;;;;;;;37.50;32.30;;;;;;6183037;23;20387;-83
2022/07/14 15:30:32;;;;;;;;;;;37.50;32.40;;;;;;6182431;23;20336;-83
2022/07/14 15:32:59;;;;;;;;;;;37.60;32.70;;;;;;6183732;23;19916;-81
2022/07/14 15:35:25;;;;;;;;;;;37.80;31.60;;;;;;6181820;23;19916;-88
2022/07/14 15:37:52;;;;;;;;;;;37.60;32.10;;;;;;6184989;23;19920;-83
2022/07/14 15:43:04;;;;;;;;;;;37.70;32.00;;;;;;6184745;23;19920;-82
2022/07/14 15:45:32;;;;;;;;;;;37.80;31.90;;;;;;6182693;23;19916;-83
2022/07/14 15:47:59;;;;;;;;;;;37.80;32.40;;;;;;6182909;23;20428;-87
2022/07/14 15:50:26;;;;;;;;;;;37.90;32.20;;;;;;6181173;23;19947;-83
2022/07/14 15:52:53;;;;;;;;;;;37.90;32.30;;;;;;6182146;23;19916;-87
2022/07/14 15:55:20;;;;;;;;;;;37.90;31.80;;;;;;6181415;23;19923;-82
2022/07/14 15:57:47;;;;;;;;;;;37.90;31.30;;;;;;6182222;23;20304;-83
2022/07/14 16:00:14;;;;;;;;;;;37.80;30.00;;;;;;6183036;23;19967;-82
2022/07/14 16:02:41;;;;;;;;;;;37.70;29.40;;;;;;6182679;23;19916;-82
2022/07/14 16:05:09;;;;;;;;;;;37.60;29.40;;;;;;6182826;23;19922;-82
2022/07/14 16:07:36;;;;;;;;;;;37.40;29.60;;;;;;6181080;23;19966;-83
2022/07/14 16:10:04;;;;;;;;;;;37.30;29.80;;;;;;6159862;23;19971;-81
2022/07/14 16:12:31;;;;;;;;;;;37.30;29.90;;;;;;6180320;23;20015;-88
2022/07/14 16:14:58;;;;;;;;;;;37.50;29.30;;;;;;6183693;23;19923;-83
2022/07/14 16:17:25;;;;;;;;;;;37.30;27.90;;;;;;6181084;23;19947;-87
2022/07/14 16:23:05;;;;;;;;;;;37.10;29.40;;;;;;6183468;23;19920;-82